Time;durP1;ratioP1;P1;durP2;ratioP2;P2;SDS_P1;SDS_P2;PMS_P1;PMS_P2;Temp;Humidity;BMP_temperature;BMP_pressure;BME280_temperature;BME280_humidity;BME280_pressure;Samples;Min_cycle;Max_cycle;Signal;HPM_P1;HPM_P2
2020/12/12 00:00:50;;;;;;;;;;;;;;;-5.54;75.43;101508.79;1867456;77;20221;-39
2020/12/12 00:03:18;;;;;;;;;;;;;;;-5.51;75.36;101515.34;1867284;77;20174;-39
2020/12/12 00:05:45;;;;;;;;;;;;;;;-5.49;75.30;101515.44;1867434;77;20446;-37
2020/12/12 00:08:16;;;;;;;;;;;;;;;-5.46;75.18;101498.65;1867444;77;20198;-44
2020/12/12 00:10:44;;;;;;;;;;;;;;;-5.44;75.08;101514.04;1866759;77;20262;-37
2020/12/12 00:13:14;;;;;;;;;;;;;;;-5.43;75.00;101509.03;1867342;77;20132;-38
2020/12/12 00:15:42;;;;;;;;;;;;;;;-5.43;74.86;101509.03;1867448;76;20152;-38
2020/12/12 00:18:10;;;;;;;;;;;;;;;-5.41;74.74;101510.41;1867259;77;20140;-37
2020/12/12 00:20:38;;;;;;;;;;;;;;;-5.41;74.68;101507.46;1867394;77;20133;-40
2020/12/12 00:23:06;;;;;;;;;;;;;;;-5.41;74.56;101502.35;1866905;76;20324;-37
2020/12/12 00:25:33;;;;;;;;;;;;;;;-5.41;74.55;101501.08;1866910;77;20436;-39
2020/12/12 00:28:01;;;;;;;;;;;;;;;-5.40;74.50;101501.95;1867397;77;20189;-39
2020/12/12 00:30:29;;;;;;;;;;;;;;;-5.39;74.48;101496.95;1867417;77;20162;-39
2020/12/12 00:32:57;;;;;;;;;;;;;;;-5.39;74.44;101489.28;1867267;77;20146;-39
2020/12/12 00:35:24;;;;;;;;;;;;;;;-5.38;74.43;101488.47;1866260;77;20129;-40
2020/12/12 00:37:52;;;;;;;;;;;;;;;-5.38;74.36;101489.74;1867310;77;20169;-40
2020/12/12 00:40:20;;;;;;;;;;;;;;;-5.37;74.36;101480.02;1867380;76;20382;-40
2020/12/12 00:42:47;;;;;;;;;;;;;;;-5.36;74.37;101484.73;1866874;75;20300;-41
2020/12/12 00:45:16;;;;;;;;;;;;;;;-5.37;74.37;101480.41;1867841;75;20276;-39
2020/12/12 00:47:49;;;;;;;;;;;;;;;-5.35;74.42;101475.89;1845062;75;20202;-38
2020/12/12 00:50:17;;;;;;;;;;;;;;;-5.34;74.37;101471.27;1867187;77;20150;-40
2020/12/12 00:52:45;;;;;;;;;;;;;;;-5.33;74.30;101467.92;1867093;77;20133;-37
2020/12/12 00:55:13;;;;;;;;;;;;;;;-5.31;74.25;101467.98;1867479;77;20558;-41
2020/12/12 00:57:41;;;;;;;;;;;;;;;-5.31;74.20;101466.72;1867432;77;20226;-39
2020/12/12 01:00:08;;;;;;;;;;;;;;;-5.30;74.19;101459.14;1867372;77;20161;-39
2020/12/12 01:02:37;;;;;;;;;;;;;;;-5.30;74.12;101451.88;1867277;76;20137;-39
2020/12/12 01:05:06;;;;;;;;;;;;;;;-5.31;74.09;101444.59;1867428;77;20148;-39
2020/12/12 01:07:33;;;;;;;;;;;;;;;-5.30;74.10;101450.59;1867478;77;20410;-40
2020/12/12 01:10:01;;;;;;;;;;;;;;;-5.30;74.09;101437.81;1867482;77;20220;-39
2020/12/12 01:12:29;;;;;;;;;;;;;;;-5.31;74.12;101435.66;1876685;75;20278;-39
2020/12/12 01:14:56;;;;;;;;;;;;;;;-5.30;74.15;101433.59;1902258;75;20179;-39
2020/12/12 01:17:25;;;;;;;;;;;;;;;-5.29;74.15;101434.08;1902564;75;20136;-41
2020/12/12 01:19:55;;;;;;;;;;;;;;;-5.29;74.13;101422.98;1855065;75;20469;-38
2020/12/12 01:22:26;;;;;;;;;;;;;;;-5.28;74.15;101417.96;1868214;75;20151;-40
2020/12/12 01:24:55;;;;;;;;;;;;;;;-5.27;74.17;101424.84;1854528;75;20191;-38
2020/12/12 01:27:23;;;;;;;;;;;;;;;-5.26;74.15;101419.34;1869480;75;20233;-40
2020/12/12 01:29:51;;;;;;;;;;;;;;;-5.27;74.15;101409.91;1867615;77;20148;-40
2020/12/12 01:32:18;;;;;;;;;;;;;;;-5.24;74.18;101410.06;1867146;76;20203;-37
2020/12/12 01:34:47;;;;;;;;;;;;;;;-5.24;74.17;101390.50;1867623;77;20404;-41
2020/12/12 01:37:16;;;;;;;;;;;;;;;-5.23;74.15;101408.88;1870652;77;20221;-42
2020/12/12 01:39:44;;;;;;;;;;;;;;;-5.23;74.14;101397.38;1868019;77;20205;-40
2020/12/12 01:42:11;;;;;;;;;;;;;;;-5.22;74.15;101376.14;1866844;75;20188;-39
2020/12/12 01:44:39;;;;;;;;;;;;;;;-5.19;74.19;101387.35;1866760;76;20273;-38
2020/12/12 01:47:07;;;;;;;;;;;;;;;-5.20;74.19;101380.08;1869790;77;20134;-38
2020/12/12 01:49:34;;;;;;;;;;;;;;;-5.19;74.23;101382.23;1835374;77;20182;-38
2020/12/12 01:52:04;;;;;;;;;;;;;;;-5.19;74.25;101363.95;1869129;77;20182;-38
2020/12/12 01:54:32;;;;;;;;;;;;;;;-5.16;74.31;101372.17;1866913;77;20157;-40
2020/12/12 01:57:02;;;;;;;;;;;;;;;-5.13;74.33;101377.08;1867231;77;20372;-40
2020/12/12 01:59:30;;;;;;;;;;;;;;;-5.11;74.35;101374.19;1867378;77;20434;-39
2020/12/12 02:01:58;;;;;;;;;;;;;;;-5.09;74.36;101375.17;1867265;76;20124;-39
2020/12/12 02:04:26;;;;;;;;;;;;;;;-5.05;74.35;101377.48;1867172;77;20402;-39
2020/12/12 02:06:54;;;;;;;;;;;;;;;-5.04;74.37;101380.53;1868031;77;20182;-39
2020/12/12 02:09:21;;;;;;;;;;;;;;;-5.01;74.42;101385.83;1867577;75;20205;-40
2020/12/12 02:11:49;;;;;;;;;;;;;;;-4.99;74.46;101392.77;1866526;77;20211;-40
2020/12/12 02:14:17;;;;;;;;;;;;;;;-4.97;74.53;101392.47;1867797;77;20491;-37
2020/12/12 02:16:53;;;;;;;;;;;;;;;-4.94;74.60;101390.09;1870609;77;20249;-39
2020/12/12 02:19:21;;;;;;;;;;;;;;;-4.92;74.70;101378.66;1885372;75;20151;-39
2020/12/12 02:21:51;;;;;;;;;;;;;;;-4.88;74.75;101387.00;1874569;75;20177;-37
2020/12/12 02:26:50;;;;;;;;;;;;;;;-4.78;74.91;101379.03;1907791;74;20134;-41
2020/12/12 02:29:18;;;;;;;;;;;;;;;-4.81;74.93;101390.39;1848473;77;20134;-40
2020/12/12 02:31:46;;;;;;;;;;;;;;;-4.78;74.99;101393.09;1871544;77;20123;-39
2020/12/12 02:34:14;;;;;;;;;;;;;;;-4.76;75.02;101381.28;1871772;77;20268;-38
2020/12/12 02:36:43;;;;;;;;;;;;;;;-4.74;75.04;101371.14;1871883;77;20142;-38
2020/12/12 02:39:13;;;;;;;;;;;;;;;-4.73;75.10;101377.62;1871533;77;20143;-41
2020/12/12 02:41:40;;;;;;;;;;;;;;;-4.71;75.14;101380.25;1871388;77;20158;-38
2020/12/12 02:44:08;;;;;;;;;;;;;;;-4.68;75.20;101374.04;1867860;77;20169;-36
2020/12/12 02:46:36;;;;;;;;;;;;;;;-4.67;75.24;101362.63;1867936;77;20217;-40
2020/12/12 02:49:03;;;;;;;;;;;;;;;-4.65;75.29;101365.23;1868116;77;20439;-36
2020/12/12 02:51:31;;;;;;;;;;;;;;;-4.63;75.34;101359.81;1867465;75;20354;-37
2020/12/12 02:53:59;;;;;;;;;;;;;;;-4.61;75.42;101348.88;1893378;75;20180;-38
2020/12/12 02:56:26;;;;;;;;;;;;;;;-4.59;75.50;101318.24;1862933;75;20171;-37
2020/12/12 02:58:54;;;;;;;;;;;;;;;-4.57;75.54;101343.52;1897216;75;20150;-39
2020/12/12 03:01:22;;;;;;;;;;;;;;;-4.55;75.63;101352.16;1867941;77;20240;-39
2020/12/12 03:03:51;;;;;;;;;;;;;;;-4.54;75.65;101350.09;1867897;77;20409;-39
2020/12/12 03:06:18;;;;;;;;;;;;;;;-4.52;75.68;101344.64;1867236;76;20184;-39
2020/12/12 03:08:46;;;;;;;;;;;;;;;-4.51;75.74;101347.28;1867919;77;20154;-40
2020/12/12 03:11:14;;;;;;;;;;;;;;;-4.49;75.81;101352.49;1868974;77;20181;-38
2020/12/12 03:13:41;;;;;;;;;;;;;;;-4.48;75.88;101332.11;1870499;75;20174;-39
2020/12/12 03:16:10;;;;;;;;;;;;;;;-4.46;75.91;101346.24;1867677;77;20226;-39
2020/12/12 03:18:37;;;;;;;;;;;;;;;-4.44;75.99;101335.70;1867549;77;20175;-38
2020/12/12 03:21:05;;;;;;;;;;;;;;;-4.42;76.07;101345.23;1867872;77;20228;-37
2020/12/12 03:23:32;;;;;;;;;;;;;;;-4.41;76.16;101326.92;1898525;75;20116;-42
2020/12/12 03:26:00;;;;;;;;;;;;;;;-4.38;76.22;101330.02;1902913;75;20236;-37
2020/12/12 03:28:27;;;;;;;;;;;;;;;-4.38;76.27;101328.74;1892534;75;20127;-39
2020/12/12 03:30:55;;;;;;;;;;;;;;;-4.38;76.33;101330.02;1886004;75;20317;-39
2020/12/12 03:33:23;;;;;;;;;;;;;;;-4.37;76.39;101320.27;1900118;75;20152;-37
2020/12/12 03:35:51;;;;;;;;;;;;;;;-4.35;76.49;101321.25;1903029;75;20257;-40
2020/12/12 03:38:19;;;;;;;;;;;;;;;-4.34;76.62;101320.05;1902596;75;20430;-38
2020/12/12 03:40:46;;;;;;;;;;;;;;;-4.32;76.71;101306.03;1902271;75;20215;-36
2020/12/12 03:43:14;;;;;;;;;;;;;;;-4.30;76.84;101308.28;1902380;75;20152;-39
2020/12/12 03:45:41;;;;;;;;;;;;;;;-4.27;76.99;101311.90;1902215;75;20133;-40
2020/12/12 03:48:09;;;;;;;;;;;;;;;-4.24;77.09;101320.12;1890665;75;20144;-40
2020/12/12 03:50:38;;;;;;;;;;;;;;;-4.22;77.22;101295.09;1868214;75;20171;-39
2020/12/12 03:53:06;;;;;;;;;;;;;;;-4.19;77.35;101304.20;1867629;77;20310;-39
2020/12/12 03:55:34;;;;;;;;;;;;;;;-4.15;77.46;101300.13;1867499;77;20176;-37
2020/12/12 03:58:02;;;;;;;;;;;;;;;-4.12;77.57;101304.11;1867532;77;20453;-39
2020/12/12 04:00:30;;;;;;;;;;;;;;;-4.09;77.74;101290.20;1867488;75;20380;-37
2020/12/12 04:02:58;;;;;;;;;;;;;;;-4.06;77.88;101294.18;1867352;77;20224;-39
2020/12/12 04:05:26;;;;;;;;;;;;;;;-4.03;78.00;101297.80;1867177;77;20135;-42
2020/12/12 04:07:53;;;;;;;;;;;;;;;-3.99;78.08;101305.62;1867382;77;20444;-39
2020/12/12 04:10:21;;;;;;;;;;;;;;;-3.98;78.18;101304.42;1867454;77;20150;-41
2020/12/12 04:12:48;;;;;;;;;;;;;;;-3.95;78.31;101307.16;1867473;77;20269;-39
2020/12/12 04:15:16;;;;;;;;;;;;;;;-3.92;78.38;101300.01;1867210;77;20229;-41
2020/12/12 04:17:44;;;;;;;;;;;;;;;-3.92;78.55;101295.77;1867317;77;20178;-37
2020/12/12 04:20:12;;;;;;;;;;;;;;;-3.90;78.65;101298.02;1867293;77;20435;-36
2020/12/12 04:22:40;;;;;;;;;;;;;;;-3.87;78.78;101293.47;1867247;77;20122;-40
2020/12/12 04:25:07;;;;;;;;;;;;;;;-3.85;78.96;101293.12;1869647;76;20299;-39
2020/12/12 04:27:35;;;;;;;;;;;;;;;-3.83;79.12;101287.28;1888136;76;20136;-40
2020/12/12 04:30:04;;;;;;;;;;;;;;;-3.80;79.29;101282.69;1875027;76;20122;-37
2020/12/12 04:32:32;;;;;;;;;;;;;;;-3.79;79.41;101286.62;1870792;75;20118;-37
2020/12/12 04:35:00;;;;;;;;;;;;;;;-3.75;79.57;101289.83;1901992;75;20172;-39
2020/12/12 04:37:28;;;;;;;;;;;;;;;-3.74;79.74;101280.03;1888552;75;20178;-38
2020/12/12 04:39:55;;;;;;;;;;;;;;;-3.71;79.90;101282.77;1867400;77;20463;-35
2020/12/12 04:42:23;;;;;;;;;;;;;;;-3.68;80.08;101283.33;1867267;77;20471;-41
2020/12/12 04:44:51;;;;;;;;;;;;;;;-3.66;80.28;101286.83;1867453;77;20122;-41
2020/12/12 04:47:19;;;;;;;;;;;;;;;-3.63;80.44;101290.44;1870046;75;20153;-39
2020/12/12 04:49:47;;;;;;;;;;;;;;;-3.61;80.58;101289.23;1867073;77;20130;-38
2020/12/12 04:52:15;;;;;;;;;;;;;;;-3.59;80.70;101291.45;1822046;77;20162;-54
2020/12/12 04:54:43;;;;;;;;;;;;;;;-3.56;80.79;101289.45;1866993;77;20452;-41
2020/12/12 04:57:11;;;;;;;;;;;;;;;-3.55;80.88;101288.66;1867402;77;20250;-41
2020/12/12 04:59:42;;;;;;;;;;;;;;;-3.54;81.05;101282.30;1867272;77;20138;-42
2020/12/12 05:02:12;;;;;;;;;;;;;;;-3.53;81.20;101295.59;1867143;76;20265;-41
2020/12/12 05:04:40;;;;;;;;;;;;;;;-3.51;81.34;101284.15;1862236;77;20162;-40
2020/12/12 05:07:10;;;;;;;;;;;;;;;-3.50;81.44;101285.91;1866044;75;20221;-41
2020/12/12 05:09:38;;;;;;;;;;;;;;;-3.50;81.54;101281.67;1874022;75;20305;-42
2020/12/12 05:12:06;;;;;;;;;;;;;;;-3.50;81.66;101279.50;1894776;75;20179;-38
2020/12/12 05:14:34;;;;;;;;;;;;;;;-3.48;81.80;101282.63;1902310;75;20132;-41
2020/12/12 05:17:02;;;;;;;;;;;;;;;-3.47;81.87;101275.39;1902223;75;20129;-37
2020/12/12 05:19:31;;;;;;;;;;;;;;;-3.47;81.95;101287.33;1902463;75;20141;-36
2020/12/12 05:22:01;;;;;;;;;;;;;;;-3.47;82.04;101276.67;1865723;75;20444;-39
2020/12/12 05:24:30;;;;;;;;;;;;;;;-3.46;82.10;101283.96;1898689;75;20136;-38
2020/12/12 05:27:01;;;;;;;;;;;;;;;-3.46;82.21;101277.16;1868351;75;20192;-38
2020/12/12 05:29:29;;;;;;;;;;;;;;;-3.45;82.32;101277.64;1876626;75;20324;-37
2020/12/12 05:31:58;;;;;;;;;;;;;;;-3.44;82.45;101275.95;1867223;77;20162;-37
2020/12/12 05:34:26;;;;;;;;;;;;;;;-3.42;82.52;101275.64;1877382;76;20132;-38
2020/12/12 05:36:54;;;;;;;;;;;;;;;-3.42;82.63;101270.52;1893364;76;20263;-41
2020/12/12 05:39:21;;;;;;;;;;;;;;;-3.41;82.73;101266.72;1867170;77;20236;-40
2020/12/12 05:41:49;;;;;;;;;;;;;;;-3.40;82.84;101254.78;1867189;77;20188;-40
2020/12/12 05:44:18;;;;;;;;;;;;;;;-3.39;82.92;101245.89;1867165;76;20225;-42
2020/12/12 05:46:46;;;;;;;;;;;;;;;-3.38;83.01;101275.84;1877010;75;20416;-40
2020/12/12 05:49:14;;;;;;;;;;;;;;;-3.36;83.09;101270.80;1869026;75;20269;-40
2020/12/12 05:51:42;;;;;;;;;;;;;;;-3.34;83.20;101273.89;1867186;77;20219;-39
2020/12/12 05:54:10;;;;;;;;;;;;;;;-3.33;83.25;101276.06;1867209;76;20168;-39
2020/12/12 05:56:38;;;;;;;;;;;;;;;-3.31;83.32;101274.46;1867227;76;20315;-40
2020/12/12 05:59:06;;;;;;;;;;;;;;;-3.31;83.42;101274.06;1873306;75;20195;-41
2020/12/12 06:01:34;;;;;;;;;;;;;;;-3.28;83.49;101272.02;1868398;75;20460;-40
2020/12/12 06:04:05;;;;;;;;;;;;;;;-3.29;83.51;101271.17;1829045;78;20271;-39
2020/12/12 06:06:32;;;;;;;;;;;;;;;-3.27;83.55;101263.53;1795964;80;20254;-40
2020/12/12 06:09:08;;;;;;;;;;;;;;;-3.27;83.60;101269.94;1829289;78;20465;-37
2020/12/12 06:11:40;;;;;;;;;;;;;;;-3.25;83.68;101269.22;1810944;77;20184;-39
2020/12/12 06:14:08;;;;;;;;;;;;;;;-3.24;83.71;101268.42;1812644;77;20166;-41
2020/12/12 06:16:36;;;;;;;;;;;;;;;-3.22;83.76;101277.04;1795150;78;20153;-38
2020/12/12 06:19:14;;;;;;;;;;;;;;;-3.21;83.78;101272.80;1825875;78;20153;-40
2020/12/12 06:21:48;;;;;;;;;;;;;;;-3.18;83.81;101267.83;1848016;77;20211;-39
2020/12/12 06:27:02;;;;;;;;;;;;;;;-3.09;83.90;101271.23;1876525;74;20530;-36
2020/12/12 06:29:32;;;;;;;;;;;;;;;-3.11;83.91;101271.56;1865100;75;20152;-41
2020/12/12 06:31:59;;;;;;;;;;;;;;;-3.09;83.92;101262.27;1874137;75;20158;-38
2020/12/12 06:34:42;;;;;;;;;;;;;;;-3.07;83.95;101256.38;1866952;75;20177;-38
2020/12/12 06:37:29;;;;;;;;;;;;;;;-3.04;84.00;101262.06;1867329;75;20192;-39
2020/12/12 06:39:58;;;;;;;;;;;;;;;-3.04;84.09;101256.54;1881467;75;20416;-41
2020/12/12 06:42:29;;;;;;;;;;;;;;;-3.01;84.15;101251.94;1873847;75;20277;-38
2020/12/12 06:44:57;;;;;;;;;;;;;;;-2.98;84.16;101243.11;1867729;75;20224;-39
2020/12/12 06:47:40;;;;;;;;;;;;;;;-2.96;84.18;101251.37;1870985;75;20161;-41
2020/12/12 06:50:23;;;;;;;;;;;;;;;-2.93;84.21;101242.52;1894103;75;20132;-43
2020/12/12 06:52:51;;;;;;;;;;;;;;;-2.90;84.22;101254.22;1902944;75;20128;-42
2020/12/12 06:55:20;;;;;;;;;;;;;;;-2.88;84.26;101248.73;1898979;75;20458;-40
2020/12/12 06:57:49;;;;;;;;;;;;;;;-2.85;84.32;101245.03;1881895;75;20136;-40
2020/12/12 07:00:30;;;;;;;;;;;;;;;-2.81;84.38;101248.60;1871811;75;20227;-41
2020/12/12 07:03:06;;;;;;;;;;;;;;;-2.79;84.48;101242.27;1867953;75;20196;-41
2020/12/12 07:05:35;;;;;;;;;;;;;;;-2.78;84.58;101246.59;1867427;77;20166;-40
2020/12/12 07:08:08;;;;;;;;;;;;;;;-2.78;84.64;101242.74;1867695;77;20474;-41
2020/12/12 07:10:37;;;;;;;;;;;;;;;-2.76;84.76;101249.72;1866596;77;20221;-42
2020/12/12 07:13:05;;;;;;;;;;;;;;;-2.77;84.80;101254.77;1867763;77;20150;-42
2020/12/12 07:15:35;;;;;;;;;;;;;;;-2.76;84.90;101253.97;1867866;75;20295;-40
2020/12/12 07:18:10;;;;;;;;;;;;;;;-2.76;85.09;101248.84;1867842;75;20184;-39
2020/12/12 07:20:44;;;;;;;;;;;;;;;-2.76;85.34;101243.70;1875427;75;20172;-40
2020/12/12 07:23:12;;;;;;;;;;;;;;;-2.81;85.77;101245.63;1867391;77;20376;-40
2020/12/12 07:25:39;;;;;;;;;;;;;;;-2.87;86.48;101236.78;1873366;75;20281;-40
2020/12/12 07:28:08;;;;;;;;;;;;;;;-2.98;87.26;101238.86;1868081;75;20455;-43
2020/12/12 07:30:36;;;;;;;;;;;;;;;-3.04;88.01;101237.30;1867824;75;20160;-39
2020/12/12 07:33:03;;;;;;;;;;;;;;;-3.07;88.67;101233.30;1869668;75;20177;-42
2020/12/12 07:35:31;;;;;;;;;;;;;;;-3.07;89.16;101233.70;1869509;75;20183;-41
2020/12/12 07:38:02;;;;;;;;;;;;;;;-3.04;89.54;101228.33;1868390;75;20286;-40
2020/12/12 07:40:32;;;;;;;;;;;;;;;-3.02;89.84;101227.97;1874653;75;20170;-43
2020/12/12 07:43:02;;;;;;;;;;;;;;;-3.00;90.11;101230.61;1867790;75;20174;-41
2020/12/12 07:45:40;;;;;;;;;;;;;;;-2.99;90.33;101225.56;1866113;75;20424;-40
2020/12/12 07:48:04;;;;;;;;;;;;;;;-2.98;90.58;101220.03;1834139;75;20284;-43
2020/12/12 07:50:38;;;;;;;;;;;;;;;-2.98;90.87;101217.06;1830451;75;20169;-42
2020/12/12 07:53:08;;;;;;;;;;;;;;;-2.98;91.07;101209.38;1845205;75;20195;-43
2020/12/12 07:55:44;;;;;;;;;;;;;;;-2.96;91.26;101207.77;1868850;75;20146;-40
2020/12/12 07:58:19;;;;;;;;;;;;;;;-2.92;91.43;101213.89;1866474;77;20146;-41
2020/12/12 08:01:00;;;;;;;;;;;;;;;-2.89;91.52;101203.36;1858015;75;20148;-42
2020/12/12 08:03:28;;;;;;;;;;;;;;;-2.86;91.54;101211.20;1866547;75;20189;-40
2020/12/12 08:06:06;;;;;;;;;;;;;;;-2.82;91.56;101204.11;1871625;75;20455;-42
2020/12/12 08:08:34;;;;;;;;;;;;;;;-2.78;91.57;101205.54;1869188;75;20211;-40
2020/12/12 08:11:02;;;;;;;;;;;;;;;-2.76;91.58;101209.06;1872102;75;20197;-41
2020/12/12 08:13:30;;;;;;;;;;;;;;;-2.74;91.60;101212.55;1870381;75;20156;-41
2020/12/12 08:16:01;;;;;;;;;;;;;;;-2.72;91.68;101209.26;1869252;75;20196;-41
2020/12/12 08:18:30;;;;;;;;;;;;;;;-2.71;91.74;101205.89;1866736;75;20126;-47
2020/12/12 08:21:16;;;;;;;;;;;;;;;-2.69;91.84;101204.69;1863969;75;20296;-40
2020/12/12 08:23:44;;;;;;;;;;;;;;;-2.68;91.98;101204.72;1866756;75;20233;-43
2020/12/12 08:26:16;;;;;;;;;;;;;;;-2.66;92.18;101215.95;1837323;77;20175;-48
2020/12/12 08:28:44;;;;;;;;;;;;;;;-2.61;92.38;101206.75;1868885;75;20292;-40
2020/12/12 08:31:16;;;;;;;;;;;;;;;-2.60;92.47;101192.23;1870087;75;20186;-42
2020/12/12 08:33:45;;;;;;;;;;;;;;;-2.58;92.53;101207.30;1870452;75;20213;-42
2020/12/12 08:36:18;;;;;;;;;;;;;;;-2.55;92.62;101199.72;1870947;75;20194;-42
2020/12/12 08:38:54;;;;;;;;;;;;;;;-2.51;92.68;101191.37;1850692;75;20166;-40
2020/12/12 08:41:23;;;;;;;;;;;;;;;-2.48;92.73;101205.60;1872220;75;20191;-42
2020/12/12 08:43:51;;;;;;;;;;;;;;;-2.48;92.76;101206.88;1877806;75;20297;-44
2020/12/12 08:46:19;;;;;;;;;;;;;;;-2.48;92.81;101200.47;1867322;75;20157;-42
2020/12/12 08:48:47;;;;;;;;;;;;;;;-2.47;92.91;101198.38;1868385;75;20489;-41
2020/12/12 08:51:17;;;;;;;;;;;;;;;-2.47;93.00;101200.55;1866850;75;20135;-40
2020/12/12 08:53:46;;;;;;;;;;;;;;;-2.49;93.12;101205.12;1866028;76;20292;-43
2020/12/12 08:56:19;;;;;;;;;;;;;;;-2.50;93.28;101195.70;1873274;75;20841;-42
2020/12/12 08:58:51;;;;;;;;;;;;;;;-2.51;93.38;101199.95;1872053;75;20162;-44
2020/12/12 09:01:21;;;;;;;;;;;;;;;-2.54;93.47;101197.23;1875694;75;20184;-38
2020/12/12 09:04:01;;;;;;;;;;;;;;;-2.55;93.59;101186.89;1872072;75;20170;-42
2020/12/12 09:06:33;;;;;;;;;;;;;;;-2.57;93.71;101193.67;1872219;75;20154;-41
2020/12/12 09:09:10;;;;;;;;;;;;;;;-2.60;93.84;101175.16;1879218;75;20192;-41
2020/12/12 09:11:42;;;;;;;;;;;;;;;-2.61;94.00;101169.54;1869876;75;20182;-40
2020/12/12 09:14:10;;;;;;;;;;;;;;;-2.61;94.13;101178.52;1892088;75;20140;-46
2020/12/12 09:16:42;;;;;;;;;;;;;;;-2.62;94.24;101172.03;1872281;75;20283;-41
2020/12/12 09:19:09;;;;;;;;;;;;;;;-2.64;94.38;101168.55;1850623;75;20195;-43
2020/12/12 09:21:37;;;;;;;;;;;;;;;-2.66;94.57;101152.19;1869378;75;20412;-41
2020/12/12 09:24:05;;;;;;;;;;;;;;;-2.68;94.68;101141.86;1866608;75;20221;-42
2020/12/12 09:26:33;;;;;;;;;;;;;;;-2.69;94.82;101157.21;1866224;75;20216;-40
2020/12/12 09:29:01;;;;;;;;;;;;;;;-2.67;94.98;101155.56;1883019;75;20295;-40
2020/12/12 09:31:30;;;;;;;;;;;;;;;-2.66;95.11;101156.92;1867896;75;20228;-42
2020/12/12 09:33:58;;;;;;;;;;;;;;;-2.64;95.24;101147.61;1870213;75;20209;-40
2020/12/12 09:36:26;;;;;;;;;;;;;;;-2.56;95.36;101150.52;1873275;75;20296;-38
2020/12/12 09:38:54;;;;;;;;;;;;;;;-2.49;95.43;101149.53;1868766;75;20280;-40
2020/12/12 09:41:21;;;;;;;;;;;;;;;-2.42;95.50;101145.13;1879062;75;20162;-39
2020/12/12 09:43:49;;;;;;;;;;;;;;;-2.34;95.50;101153.16;1868056;75;20188;-40
2020/12/12 09:46:18;;;;;;;;;;;;;;;-2.28;95.50;101148.69;1869504;75;20332;-40
2020/12/12 09:48:47;;;;;;;;;;;;;;;-2.24;95.46;101147.62;1868470;75;20217;-40
2020/12/12 09:51:16;;;;;;;;;;;;;;;-2.21;95.43;101148.13;1868430;75;20250;-41
2020/12/12 09:53:47;;;;;;;;;;;;;;;-2.18;95.38;101141.45;1873852;75;20209;-40
2020/12/12 09:56:22;;;;;;;;;;;;;;;-2.16;95.33;101135.95;1814802;76;20134;-41
2020/12/12 09:58:56;;;;;;;;;;;;;;;-2.12;95.31;101140.41;1855723;75;20122;-41
2020/12/12 10:01:24;;;;;;;;;;;;;;;-2.07;95.31;101132.89;1870244;75;20801;-40
2020/12/12 10:03:52;;;;;;;;;;;;;;;-2.03;95.26;101131.78;1875696;75;20182;-40
2020/12/12 10:06:19;;;;;;;;;;;;;;;-1.98;95.21;101134.97;1869128;75;20190;-41
2020/12/12 10:08:47;;;;;;;;;;;;;;;-1.96;95.15;101132.91;1869743;75;20229;-40
2020/12/12 10:11:15;;;;;;;;;;;;;;;-1.93;95.10;101119.32;1868660;75;20213;-39
2020/12/12 10:13:43;;;;;;;;;;;;;;;-1.93;95.05;101128.31;1868131;75;20193;-41
2020/12/12 10:16:12;;;;;;;;;;;;;;;-1.93;95.03;101123.17;1868479;75;20205;-40
2020/12/12 10:18:40;;;;;;;;;;;;;;;-1.92;95.00;101122.36;1872340;75;20576;-40
2020/12/12 10:21:10;;;;;;;;;;;;;;;-1.92;95.05;101115.94;1870671;75;20203;-40
2020/12/12 10:26:48;;;;;;;;;;;;;;;-1.83;95.03;101115.88;1896392;74;20274;-42
2020/12/12 10:29:18;;;;;;;;;;;;;;;-1.86;95.03;101108.07;1856730;75;20186;-40
2020/12/12 10:31:46;;;;;;;;;;;;;;;-1.85;95.06;101103.41;1871274;75;20192;-40
2020/12/12 10:34:14;;;;;;;;;;;;;;;-1.83;95.05;101102.16;1872104;75;20162;-40
2020/12/12 10:36:41;;;;;;;;;;;;;;;-1.82;95.07;101103.91;1875959;75;20196;-40
2020/12/12 10:39:09;;;;;;;;;;;;;;;-1.79;95.08;101107.50;1870057;75;20189;-41
2020/12/12 10:41:37;;;;;;;;;;;;;;;-1.79;95.09;101106.21;1868822;75;20233;-41
2020/12/12 10:44:05;;;;;;;;;;;;;;;-1.75;95.13;101111.05;1874548;75;20120;-42
2020/12/12 10:46:34;;;;;;;;;;;;;;;-1.73;95.15;101116.73;1866580;75;20400;-42
2020/12/12 10:49:02;;;;;;;;;;;;;;;-1.72;95.15;101108.20;1877325;75;20182;-43
2020/12/12 10:51:35;;;;;;;;;;;;;;;-1.69;95.18;101110.00;1875588;75;20187;-43
2020/12/12 10:54:11;;;;;;;;;;;;;;;-1.67;95.20;101101.95;1853161;75;20317;-42
2020/12/12 10:56:40;;;;;;;;;;;;;;;-1.65;95.21;101107.63;1870188;75;20340;-41
2020/12/12 10:59:08;;;;;;;;;;;;;;;-1.63;95.20;101096.09;1873098;75;20213;-42
2020/12/12 11:01:37;;;;;;;;;;;;;;;-1.62;95.21;101096.16;1818409;77;20205;-42
2020/12/12 11:04:06;;;;;;;;;;;;;;;-1.61;95.23;101097.92;1815025;78;20189;-43
2020/12/12 11:06:35;;;;;;;;;;;;;;;-1.59;95.28;101092.84;1780256;78;20132;-42
2020/12/12 11:09:03;;;;;;;;;;;;;;;-1.56;95.30;101096.80;1842591;77;20178;-40
2020/12/12 11:11:31;;;;;;;;;;;;;;;-1.54;95.37;101100.32;1835095;77;20176;-43
2020/12/12 11:13:58;;;;;;;;;;;;;;;-1.49;95.43;101104.34;1832822;77;20200;-41
2020/12/12 11:16:27;;;;;;;;;;;;;;;-1.45;95.47;101113.54;1834571;77;20184;-43
2020/12/12 11:18:55;;;;;;;;;;;;;;;-1.39;95.51;101110.31;1813301;78;20489;-41
2020/12/12 11:21:24;;;;;;;;;;;;;;;-1.33;95.55;101110.55;1834767;77;20438;-43
2020/12/12 11:23:52;;;;;;;;;;;;;;;-1.27;95.58;101113.34;1834155;77;20321;-42
2020/12/12 11:26:21;;;;;;;;;;;;;;;-1.22;95.56;101111.41;1816458;78;20121;-43
2020/12/12 11:28:51;;;;;;;;;;;;;;;-1.18;95.57;101112.38;1777426;78;20288;-44
2020/12/12 11:31:23;;;;;;;;;;;;;;;-1.14;95.57;101106.95;1816313;77;20206;-43
2020/12/12 11:33:59;;;;;;;;;;;;;;;-1.09;95.54;101110.56;1777739;77;20164;-47
2020/12/12 11:39:02;;;;;;;;;;;;;;;-1.07;95.47;101109.81;1834485;77;20271;-44
2020/12/12 11:44:44;;;;;;;;;;;;;;;-1.01;95.51;101100.16;1788499;78;20375;-46
2020/12/12 11:47:01;;;;;;;;;;;;;;;-0.99;95.50;101104.55;1778599;78;20165;-43
2020/12/12 11:49:30;;;;;;;;;;;;;;;-0.95;95.55;101110.25;1805681;78;20590;-39
2020/12/12 11:51:57;;;;;;;;;;;;;;;-0.92;95.57;101106.93;1814381;77;20485;-39
2020/12/12 11:54:25;;;;;;;;;;;;;;;-0.87;95.61;101109.25;1814933;78;20180;-40
2020/12/12 11:56:56;;;;;;;;;;;;;;;-0.82;95.63;101099.98;1807629;78;20278;-41
2020/12/12 11:59:25;;;;;;;;;;;;;;;-0.77;95.67;101101.02;1790478;78;20416;-40
2020/12/12 12:01:55;;;;;;;;;;;;;;;-0.72;95.69;101091.75;1806158;78;20192;-41
2020/12/12 12:04:26;;;;;;;;;;;;;;;-0.67;95.71;101094.50;1802376;78;20582;-45
2020/12/12 12:06:56;;;;;;;;;;;;;;;-0.61;95.71;101107.18;1762077;78;20227;-40
2020/12/12 12:09:36;;;;;;;;;;;;;;;-0.57;95.70;101111.60;1755244;78;20230;-40
2020/12/12 12:12:00;;;;;;;;;;;;;;;-0.52;95.67;101101.04;1803388;78;20198;-40
2020/12/12 12:14:28;;;;;;;;;;;;;;;-0.47;95.66;101104.67;1835550;77;20194;-42
2020/12/12 12:17:01;;;;;;;;;;;;;;;-0.43;95.63;101101.37;1833180;77;20208;-41
2020/12/12 12:19:29;;;;;;;;;;;;;;;-0.38;95.58;101109.23;1838162;77;20182;-40
2020/12/12 12:21:57;;;;;;;;;;;;;;;-0.34;95.57;101115.39;1838456;77;20228;-39
2020/12/12 12:24:25;;;;;;;;;;;;;;;-0.32;95.51;101115.88;1841820;76;20291;-38
2020/12/12 12:26:53;;;;;;;;;;;;;;;-0.31;95.46;101116.35;1813343;78;20778;-40
2020/12/12 12:29:21;;;;;;;;;;;;;;;-0.29;95.38;101118.98;1826346;77;20200;-41
2020/12/12 12:31:51;;;;;;;;;;;;;;;-0.28;95.37;101121.63;1791283;78;20274;-41
2020/12/12 12:34:31;;;;;;;;;;;;;;;-0.27;95.32;101129.81;1763796;77;20200;-42
2020/12/12 12:37:00;;;;;;;;;;;;;;;-0.26;95.27;101132.83;1804339;77;21182;-41
2020/12/12 12:39:27;;;;;;;;;;;;;;;-0.25;95.23;101132.02;1831483;77;20720;-40
2020/12/12 12:41:55;;;;;;;;;;;;;;;-0.24;95.22;101139.33;1809649;77;20212;-40
2020/12/12 12:44:25;;;;;;;;;;;;;;;-0.24;95.19;101136.75;1832027;77;20209;-40
2020/12/12 12:46:53;;;;;;;;;;;;;;;-0.24;95.21;101138.92;1833968;77;21201;-38
2020/12/12 12:49:21;;;;;;;;;;;;;;;-0.21;95.25;101142.02;1834459;77;20205;-40
2020/12/12 12:51:50;;;;;;;;;;;;;;;-0.21;95.26;101141.62;1832801;77;20216;-44
2020/12/12 12:54:19;;;;;;;;;;;;;;;-0.19;95.31;101141.23;1833140;77;20221;-40
2020/12/12 12:56:47;;;;;;;;;;;;;;;-0.18;95.32;101135.67;1817220;77;20200;-40
2020/12/12 12:59:14;;;;;;;;;;;;;;;-0.17;95.36;101130.58;1831685;77;20304;-38